sensor_id;sensor_type;location;lat;lon;timestamp;pressure;altitude;pressure_sealevel;temperature
68440;BMP180;55421;51.600;5.718;2022-07-21T00:01:56;94556.00;;;22.10
68440;BMP180;55421;51.600;5.718;2022-07-21T00:04:23;94493.00;;;22.10
68440;BMP180;55421;51.600;5.718;2022-07-21T00:06:49;94491.40;;;22.00
68440;BMP180;55421;51.600;5.718;2022-07-21T00:09:17;94573.20;;;22.00
68440;BMP180;55421;51.600;5.718;2022-07-21T00:11:43;93690.20;;;22.00
68440;BMP180;55421;51.600;5.718;2022-07-21T00:14:11;94002.40;;;21.90
68440;BMP180;55421;51.600;5.718;2022-07-21T00:16:40;94350.00;;;21.90
68440;BMP180;55421;51.600;5.718;2022-07-21T00:19:07;93433.20;;;21.90
68440;BMP180;55421;51.600;5.718;2022-07-21T00:21:37;94006.80;;;21.90
68440;BMP180;55421;51.600;5.718;2022-07-21T00:24:03;94874.20;;;21.90
68440;BMP180;55421;51.600;5.718;2022-07-21T00:26:30;93368.40;;;21.80
68440;BMP180;55421;51.600;5.718;2022-07-21T00:28:56;94286.80;;;21.80
68440;BMP180;55421;51.600;5.718;2022-07-21T00:31:23;93218.60;;;21.80
68440;BMP180;55421;51.600;5.718;2022-07-21T00:33:49;93273.60;;;21.80
68440;BMP180;55421;51.600;5.718;2022-07-21T00:36:18;93540.20;;;21.62
68440;BMP180;55421;51.600;5.718;2022-07-21T00:38:45;93605.40;;;21.60
68440;BMP180;55421;51.600;5.718;2022-07-21T00:41:12;92489.20;;;21.60
68440;BMP180;55421;51.600;5.718;2022-07-21T00:43:38;93066.40;;;21.62
68440;BMP180;55421;51.600;5.718;2022-07-21T00:46:05;93390.80;;;21.60
68440;BMP180;55421;51.600;5.718;2022-07-21T00:48:32;92512.40;;;21.60
68440;BMP180;55421;51.600;5.718;2022-07-21T00:50:58;92394.80;;;21.60
68440;BMP180;55421;51.600;5.718;2022-07-21T00:53:25;94356.60;;;21.50
68440;BMP180;55421;51.600;5.718;2022-07-21T00:55:51;94632.00;;;21.40
68440;BMP180;55421;51.600;5.718;2022-07-21T00:58:18;94697.20;;;21.42
68440;BMP180;55421;51.600;5.718;2022-07-21T01:00:45;94101.80;;;21.40
68440;BMP180;55421;51.600;5.718;2022-07-21T01:03:11;93110.80;;;21.40
68440;BMP180;55421;51.600;5.718;2022-07-21T01:05:38;92877.60;;;21.42
68440;BMP180;55421;51.600;5.718;2022-07-21T01:08:05;93577.20;;;21.50
68440;BMP180;55421;51.600;5.718;2022-07-21T01:10:32;93831.00;;;21.40
68440;BMP180;55421;51.600;5.718;2022-07-21T01:13:00;94423.20;;;21.40
68440;BMP180;55421;51.600;5.718;2022-07-21T01:15:27;93702.20;;;21.30
68440;BMP180;55421;51.600;5.718;2022-07-21T01:17:54;92739.80;;;21.30
68440;BMP180;55421;51.600;5.718;2022-07-21T01:20:23;92629.80;;;21.30
68440;BMP180;55421;51.600;5.718;2022-07-21T01:22:55;93434.20;;;21.30
68440;BMP180;55421;51.600;5.718;2022-07-21T01:25:24;92336.60;;;21.26
68440;BMP180;55421;51.600;5.718;2022-07-21T01:27:50;93184.60;;;21.20
68440;BMP180;55421;51.600;5.718;2022-07-21T01:30:17;92097.40;;;21.20
68440;BMP180;55421;51.600;5.718;2022-07-21T01:32:44;93055.20;;;21.20
68440;BMP180;55421;51.600;5.718;2022-07-21T01:35:14;92444.60;;;21.20
68440;BMP180;55421;51.600;5.718;2022-07-21T01:37:45;91583.20;;;21.16
68440;BMP180;55421;51.600;5.718;2022-07-21T01:40:13;91978.00;;;21.16
68440;BMP180;55421;51.600;5.718;2022-07-21T01:43:04;91681.60;;;21.10
68440;BMP180;55421;51.600;5.718;2022-07-21T01:45:30;91416.40;;;21.10
68440;BMP180;55421;51.600;5.718;2022-07-21T01:47:57;90845.20;;;21.08
68440;BMP180;55421;51.600;5.718;2022-07-21T01:50:25;90595.80;;;21.00
68440;BMP180;55421;51.600;5.718;2022-07-21T01:52:56;90975.40;;;20.92
68440;BMP180;55421;51.600;5.718;2022-07-21T01:55:25;90955.00;;;20.80
68440;BMP180;55421;51.600;5.718;2022-07-21T01:57:52;90465.20;;;20.70
68440;BMP180;55421;51.600;5.718;2022-07-21T02:00:19;89820.40;;;20.70
68440;BMP180;55421;51.600;5.718;2022-07-21T02:02:45;90094.80;;;20.70
68440;BMP180;55421;51.600;5.718;2022-07-21T02:05:12;89875.00;;;20.70
68440;BMP180;55421;51.600;5.718;2022-07-21T02:07:38;89307.20;;;20.60
68440;BMP180;55421;51.600;5.718;2022-07-21T02:10:05;88620.00;;;20.66
68440;BMP180;55421;51.600;5.718;2022-07-21T02:12:32;87593.60;;;20.68
68440;BMP180;55421;51.600;5.718;2022-07-21T02:14:58;88635.60;;;20.60
68440;BMP180;55421;51.600;5.718;2022-07-21T02:17:25;87724.20;;;20.58
68440;BMP180;55421;51.600;5.718;2022-07-21T02:19:53;85107.60;;;20.50
68440;BMP180;55421;51.600;5.718;2022-07-21T02:22:19;84718.40;;;20.60
68440;BMP180;55421;51.600;5.718;2022-07-21T02:24:46;84440.60;;;20.70
68440;BMP180;55421;51.600;5.718;2022-07-21T02:27:12;84212.60;;;20.70
68440;BMP180;55421;51.600;5.718;2022-07-21T02:29:39;83364.40;;;20.70
68440;BMP180;55421;51.600;5.718;2022-07-21T02:32:05;84925.40;;;20.70
68440;BMP180;55421;51.600;5.718;2022-07-21T02:34:32;83541.00;;;20.80
68440;BMP180;55421;51.600;5.718;2022-07-21T02:36:58;83204.20;;;20.80
68440;BMP180;55421;51.600;5.718;2022-07-21T02:39:25;84287.00;;;20.84
68440;BMP180;55421;51.600;5.718;2022-07-21T02:41:52;84059.20;;;20.90
68440;BMP180;55421;51.600;5.718;2022-07-21T02:44:19;82913.00;;;20.90
68440;BMP180;55421;51.600;5.718;2022-07-21T02:46:45;82094.00;;;20.84
68440;BMP180;55421;51.600;5.718;2022-07-21T02:49:11;81769.00;;;20.80
68440;BMP180;55421;51.600;5.718;2022-07-21T02:51:38;80005.80;;;20.80
68440;BMP180;55421;51.600;5.718;2022-07-21T02:54:04;81057.00;;;20.80
68440;BMP180;55421;51.600;5.718;2022-07-21T02:56:31;79945.00;;;20.80
68440;BMP180;55421;51.600;5.718;2022-07-21T02:58:57;79737.80;;;20.80
68440;BMP180;55421;51.600;5.718;2022-07-21T03:01:24;80392.60;;;20.70
68440;BMP180;55421;51.600;5.718;2022-07-21T03:03:50;80255.80;;;20.70
68440;BMP180;55421;51.600;5.718;2022-07-21T03:06:16;77889.40;;;20.68
68440;BMP180;55421;51.600;5.718;2022-07-21T03:08:43;78112.20;;;20.70
68440;BMP180;55421;51.600;5.718;2022-07-21T03:11:09;76666.80;;;20.70
68440;BMP180;55421;51.600;5.718;2022-07-21T03:13:35;75711.80;;;20.70
68440;BMP180;55421;51.600;5.718;2022-07-21T03:16:02;78272.20;;;20.74
68440;BMP180;55421;51.600;5.718;2022-07-21T03:18:28;75966.80;;;20.76
68440;BMP180;55421;51.600;5.718;2022-07-21T03:20:57;74798.80;;;20.80
68440;BMP180;55421;51.600;5.718;2022-07-21T03:23:24;78191.00;;;20.70
68440;BMP180;55421;51.600;5.718;2022-07-21T03:25:50;74985.80;;;20.70
68440;BMP180;55421;51.600;5.718;2022-07-21T03:28:17;73675.20;;;20.60
68440;BMP180;55421;51.600;5.718;2022-07-21T03:30:45;72357.00;;;20.60
68440;BMP180;55421;51.600;5.718;2022-07-21T03:33:12;72070.20;;;20.70
68440;BMP180;55421;51.600;5.718;2022-07-21T03:35:38;74756.20;;;20.70
68440;BMP180;55421;51.600;5.718;2022-07-21T03:38:05;72902.00;;;20.70
68440;BMP180;55421;51.600;5.718;2022-07-21T03:40:35;72896.60;;;20.70
68440;BMP180;55421;51.600;5.718;2022-07-21T03:43:05;70505.40;;;20.60
68440;BMP180;55421;51.600;5.718;2022-07-21T03:45:33;70225.80;;;20.70
68440;BMP180;55421;51.600;5.718;2022-07-21T03:48:03;72832.60;;;20.74
68440;BMP180;55421;51.600;5.718;2022-07-21T03:50:30;68884.00;;;20.80
68440;BMP180;55421;51.600;5.718;2022-07-21T03:52:58;68368.60;;;20.82
68440;BMP180;55421;51.600;5.718;2022-07-21T03:55:25;67338.40;;;20.80
68440;BMP180;55421;51.600;5.718;2022-07-21T03:58:00;68485.60;;;20.80
68440;BMP180;55421;51.600;5.718;2022-07-21T04:00:39;68066.20;;;20.70
68440;BMP180;55421;51.600;5.718;2022-07-21T04:03:07;66239.00;;;20.66
68440;BMP180;55421;51.600;5.718;2022-07-21T04:05:35;66089.60;;;20.68
68440;BMP180;55421;51.600;5.718;2022-07-21T04:08:03;63860.40;;;20.64
68440;BMP180;55421;51.600;5.718;2022-07-21T04:10:34;62460.80;;;20.60
68440;BMP180;55421;51.600;5.718;2022-07-21T04:13:03;61254.20;;;20.60
68440;BMP180;55421;51.600;5.718;2022-07-21T04:15:32;61943.60;;;20.60
68440;BMP180;55421;51.600;5.718;2022-07-21T04:17:58;61612.00;;;20.60
68440;BMP180;55421;51.600;5.718;2022-07-21T04:20:25;62269.00;;;20.54
68440;BMP180;55421;51.600;5.718;2022-07-21T04:22:52;59102.20;;;20.52
68440;BMP180;55421;51.600;5.718;2022-07-21T04:25:20;59751.40;;;20.52
68440;BMP180;55421;51.600;5.718;2022-07-21T04:27:48;56459.20;;;20.60
68440;BMP180;55421;51.600;5.718;2022-07-21T04:30:22;57103.20;;;20.60
68440;BMP180;55421;51.600;5.718;2022-07-21T04:32:49;55887.00;;;20.60
68440;BMP180;55421;51.600;5.718;2022-07-21T04:35:16;54517.80;;;20.50
68440;BMP180;55421;51.600;5.718;2022-07-21T04:37:43;54071.00;;;20.54
68440;BMP180;55421;51.600;5.718;2022-07-21T04:40:11;53098.00;;;20.50
68440;BMP180;55421;51.600;5.718;2022-07-21T04:42:39;54618.60;;;20.50
68440;BMP180;55421;51.600;5.718;2022-07-21T04:45:08;54050.60;;;20.50
68440;BMP180;55421;51.600;5.718;2022-07-21T04:50:10;47362.60;;;20.60
68440;BMP180;55421;51.600;5.718;2022-07-21T04:52:37;46391.20;;;20.60
68440;BMP180;55421;51.600;5.718;2022-07-21T04:55:04;43934.80;;;20.60
68440;BMP180;55421;51.600;5.718;2022-07-21T04:57:30;47959.60;;;20.60
68440;BMP180;55421;51.600;5.718;2022-07-21T04:59:57;42633.80;;;20.60
68440;BMP180;55421;51.600;5.718;2022-07-21T05:02:23;42472.20;;;20.60
68440;BMP180;55421;51.600;5.718;2022-07-21T05:04:49;44881.00;;;20.60
68440;BMP180;55421;51.600;5.718;2022-07-21T05:07:16;44181.00;;;20.60
68440;BMP180;55421;51.600;5.718;2022-07-21T05:09:42;43651.80;;;20.60
68440;BMP180;55421;51.600;5.718;2022-07-21T05:12:09;42128.40;;;20.52
68440;BMP180;55421;51.600;5.718;2022-07-21T05:14:35;35638.80;;;20.52
68440;BMP180;55421;51.600;5.718;2022-07-21T05:17:01;36125.40;;;20.58
68440;BMP180;55421;51.600;5.718;2022-07-21T05:19:28;41272.80;;;20.60
68440;BMP180;55421;51.600;5.718;2022-07-21T05:21:55;35444.40;;;20.62
68440;BMP180;55421;51.600;5.718;2022-07-21T05:24:21;34766.00;;;20.68
68440;BMP180;55421;51.600;5.718;2022-07-21T05:26:48;28041.80;;;20.70
68440;BMP180;55421;51.600;5.718;2022-07-21T05:29:14;30611.80;;;20.70
68440;BMP180;55421;51.600;5.718;2022-07-21T05:31:40;31485.80;;;20.70
68440;BMP180;55421;51.600;5.718;2022-07-21T05:34:07;33155.80;;;20.60
68440;BMP180;55421;51.600;5.718;2022-07-21T05:36:33;29970.80;;;20.68
68440;BMP180;55421;51.600;5.718;2022-07-21T05:39:00;29904.60;;;20.70
68440;BMP180;55421;51.600;5.718;2022-07-21T05:41:26;31687.80;;;20.80
68440;BMP180;55421;51.600;5.718;2022-07-21T05:43:53;30746.20;;;20.90
68440;BMP180;55421;51.600;5.718;2022-07-21T05:46:19;30740.00;;;20.90
68440;BMP180;55421;51.600;5.718;2022-07-21T05:48:46;30534.80;;;21.00
68440;BMP180;55421;51.600;5.718;2022-07-21T05:51:12;29584.80;;;21.00
68440;BMP180;55421;51.600;5.718;2022-07-21T05:53:39;28058.40;;;21.06
68440;BMP180;55421;51.600;5.718;2022-07-21T05:56:06;30026.80;;;21.12
68440;BMP180;55421;51.600;5.718;2022-07-21T05:58:34;28909.00;;;21.20
68440;BMP180;55421;51.600;5.718;2022-07-21T06:01:00;32979.20;;;21.20
68440;BMP180;55421;51.600;5.718;2022-07-21T06:03:48;31837.80;;;21.18
68440;BMP180;55421;51.600;5.718;2022-07-21T06:06:18;28473.40;;;21.10
68440;BMP180;55421;51.600;5.718;2022-07-21T06:08:47;25123.80;;;21.00
68440;BMP180;55421;51.600;5.718;2022-07-21T06:11:17;29759.60;;;21.00
68440;BMP180;55421;51.600;5.718;2022-07-21T06:13:45;30164.00;;;20.90
68440;BMP180;55421;51.600;5.718;2022-07-21T06:16:12;29380.80;;;20.88
68440;BMP180;55421;51.600;5.718;2022-07-21T06:18:39;29853.60;;;20.86
68440;BMP180;55421;51.600;5.718;2022-07-21T06:21:05;30358.40;;;20.80
68440;BMP180;55421;51.600;5.718;2022-07-21T06:23:32;26747.80;;;20.80
68440;BMP180;55421;51.600;5.718;2022-07-21T06:25:59;31457.60;;;20.70
68440;BMP180;55421;51.600;5.718;2022-07-21T06:28:25;32897.60;;;20.70
68440;BMP180;55421;51.600;5.718;2022-07-21T06:30:52;33600.40;;;20.70
68440;BMP180;55421;51.600;5.718;2022-07-21T06:33:18;33411.40;;;20.70
68440;BMP180;55421;51.600;5.718;2022-07-21T06:35:45;31893.60;;;20.70
68440;BMP180;55421;51.600;5.718;2022-07-21T06:38:11;34401.00;;;20.70
68440;BMP180;55421;51.600;5.718;2022-07-21T06:40:38;29429.80;;;20.60
68440;BMP180;55421;51.600;5.718;2022-07-21T06:43:04;33267.20;;;20.70
68440;BMP180;55421;51.600;5.718;2022-07-21T06:45:34;28524.80;;;20.70
68440;BMP180;55421;51.600;5.718;2022-07-21T06:48:05;31039.00;;;20.78
68440;BMP180;55421;51.600;5.718;2022-07-21T06:50:33;24868.80;;;20.80
68440;BMP180;55421;51.600;5.718;2022-07-21T06:53:00;26040.00;;;20.80
68440;BMP180;55421;51.600;5.718;2022-07-21T06:55:27;26377.60;;;20.90
68440;BMP180;55421;51.600;5.718;2022-07-21T06:57:53;31346.80;;;20.90
68440;BMP180;55421;51.600;5.718;2022-07-21T07:00:20;30969.40;;;20.90
68440;BMP180;55421;51.600;5.718;2022-07-21T07:02:47;30765.60;;;20.98
68440;BMP180;55421;51.600;5.718;2022-07-21T07:05:14;29848.00;;;21.00
68440;BMP180;55421;51.600;5.718;2022-07-21T07:07:40;31145.40;;;21.10
68440;BMP180;55421;51.600;5.718;2022-07-21T07:10:07;31274.20;;;21.10
68440;BMP180;55421;51.600;5.718;2022-07-21T07:12:34;31063.00;;;21.20
68440;BMP180;55421;51.600;5.718;2022-07-21T07:15:02;31557.20;;;21.20
68440;BMP180;55421;51.600;5.718;2022-07-21T07:17:29;34485.80;;;21.30
68440;BMP180;55421;51.600;5.718;2022-07-21T07:19:55;34726.00;;;21.40
68440;BMP180;55421;51.600;5.718;2022-07-21T07:22:22;37202.00;;;21.50
68440;BMP180;55421;51.600;5.718;2022-07-21T07:24:48;33637.00;;;21.60
68440;BMP180;55421;51.600;5.718;2022-07-21T07:27:15;34842.80;;;21.70
68440;BMP180;55421;51.600;5.718;2022-07-21T07:29:41;36732.80;;;21.70
68440;BMP180;55421;51.600;5.718;2022-07-21T07:32:08;36841.60;;;21.80
68440;BMP180;55421;51.600;5.718;2022-07-21T07:34:34;40931.40;;;21.80
68440;BMP180;55421;51.600;5.718;2022-07-21T07:37:01;39468.60;;;21.70
68440;BMP180;55421;51.600;5.718;2022-07-21T07:39:27;40462.60;;;21.70
68440;BMP180;55421;51.600;5.718;2022-07-21T07:41:54;43371.20;;;21.60
68440;BMP180;55421;51.600;5.718;2022-07-21T07:44:22;41639.00;;;21.60
68440;BMP180;55421;51.600;5.718;2022-07-21T07:46:49;42183.60;;;21.50
68440;BMP180;55421;51.600;5.718;2022-07-21T07:49:16;40562.60;;;21.44
68440;BMP180;55421;51.600;5.718;2022-07-21T07:51:43;39280.80;;;21.40
68440;BMP180;55421;51.600;5.718;2022-07-21T07:54:09;34218.40;;;21.40
68440;BMP180;55421;51.600;5.718;2022-07-21T07:56:36;32801.80;;;21.30
68440;BMP180;55421;51.600;5.718;2022-07-21T07:59:02;30835.80;;;21.40
68440;BMP180;55421;51.600;5.718;2022-07-21T08:01:28;30649.20;;;21.46
68440;BMP180;55421;51.600;5.718;2022-07-21T08:03:55;28648.20;;;21.60
68440;BMP180;55421;51.600;5.718;2022-07-21T08:06:22;29868.40;;;21.70
68440;BMP180;55421;51.600;5.718;2022-07-21T08:08:48;31178.60;;;21.70
68440;BMP180;55421;51.600;5.718;2022-07-21T08:11:15;33363.00;;;21.70
68440;BMP180;55421;51.600;5.718;2022-07-21T08:13:41;35286.60;;;21.80
68440;BMP180;55421;51.600;5.718;2022-07-21T08:16:08;34579.80;;;21.80
68440;BMP180;55421;51.600;5.718;2022-07-21T08:18:35;32682.60;;;21.84
68440;BMP180;55421;51.600;5.718;2022-07-21T08:21:01;33330.60;;;21.94
68440;BMP180;55421;51.600;5.718;2022-07-21T08:23:28;36458.40;;;22.00
68440;BMP180;55421;51.600;5.718;2022-07-21T08:25:54;34368.60;;;22.00
68440;BMP180;55421;51.600;5.718;2022-07-21T08:28:21;39785.00;;;22.00
68440;BMP180;55421;51.600;5.718;2022-07-21T08:30:47;39973.20;;;21.90
68440;BMP180;55421;51.600;5.718;2022-07-21T08:33:14;38656.40;;;21.72
68440;BMP180;55421;51.600;5.718;2022-07-21T08:35:40;38510.20;;;21.70
68440;BMP180;55421;51.600;5.718;2022-07-21T08:38:09;36522.80;;;21.60
68440;BMP180;55421;51.600;5.718;2022-07-21T08:40:40;36708.20;;;21.50
68440;BMP180;55421;51.600;5.718;2022-07-21T08:43:07;37490.40;;;21.50
68440;BMP180;55421;51.600;5.718;2022-07-21T08:45:36;32674.00;;;21.40
68440;BMP180;55421;51.600;5.718;2022-07-21T08:48:04;30819.60;;;21.30
68440;BMP180;55421;51.600;5.718;2022-07-21T08:50:36;28936.80;;;21.26
68440;BMP180;55421;51.600;5.718;2022-07-21T08:53:03;24052.00;;;21.20
68440;BMP180;55421;51.600;5.718;2022-07-21T08:55:37;22699.00;;;21.20
68440;BMP180;55421;51.600;5.718;2022-07-21T08:58:09;20820.80;;;21.10
68440;BMP180;55421;51.600;5.718;2022-07-21T09:00:38;14053.00;;;21.00
68440;BMP180;55421;51.600;5.718;2022-07-21T09:03:26;16217.00;;;21.00
68440;BMP180;55421;51.600;5.718;2022-07-21T09:06:13;13162.00;;;21.00
68440;BMP180;55421;51.600;5.718;2022-07-21T09:08:46;12370.40;;;20.90
68440;BMP180;55421;51.600;5.718;2022-07-21T09:14:13;9444.20;;;20.80
68440;BMP180;55421;51.600;5.718;2022-07-21T09:16:43;7407.60;;;20.70
68440;BMP180;55421;51.600;5.718;2022-07-21T09:19:26;5693.60;;;20.70
68440;BMP180;55421;51.600;5.718;2022-07-21T09:21:56;2109.40;;;20.60
68440;BMP180;55421;51.600;5.718;2022-07-21T09:27:12;51130.80;;;20.60
68440;BMP180;55421;51.600;5.718;2022-07-21T09:30:07;248326.20;;;20.60
68440;BMP180;55421;51.600;5.718;2022-07-21T09:32:36;248174.59;;;20.50
68440;BMP180;55421;51.600;5.718;2022-07-21T09:35:08;246369.00;;;20.42
68440;BMP180;55421;51.600;5.718;2022-07-21T09:37:42;243655.20;;;20.40
68440;BMP180;55421;51.600;5.718;2022-07-21T09:40:12;242885.80;;;20.40
68440;BMP180;55421;51.600;5.718;2022-07-21T09:42:46;239560.20;;;20.42
68440;BMP180;55421;51.600;5.718;2022-07-21T09:45:16;238815.20;;;20.50
68440;BMP180;55421;51.600;5.718;2022-07-21T09:47:44;237320.59;;;20.60
68440;BMP180;55421;51.600;5.718;2022-07-21T09:50:15;236759.00;;;20.60
68440;BMP180;55421;51.600;5.718;2022-07-21T09:52:45;234930.80;;;20.60
68440;BMP180;55421;51.600;5.718;2022-07-21T09:55:16;233886.80;;;20.60
68440;BMP180;55421;51.600;5.718;2022-07-21T09:57:44;232458.00;;;20.60
68440;BMP180;55421;51.600;5.718;2022-07-21T10:00:14;232704.41;;;20.60
68440;BMP180;55421;51.600;5.718;2022-07-21T10:02:44;230974.00;;;20.62
68440;BMP180;55421;51.600;5.718;2022-07-21T10:05:16;229606.59;;;20.62
68440;BMP180;55421;51.600;5.718;2022-07-21T10:07:46;229232.80;;;20.70
68440;BMP180;55421;51.600;5.718;2022-07-21T10:10:14;228350.80;;;20.70
68440;BMP180;55421;51.600;5.718;2022-07-21T10:12:41;227401.41;;;20.70
68440;BMP180;55421;51.600;5.718;2022-07-21T10:15:08;228229.80;;;20.70
68440;BMP180;55421;51.600;5.718;2022-07-21T10:17:36;227189.80;;;20.70
68440;BMP180;55421;51.600;5.718;2022-07-21T10:20:29;227481.59;;;20.60
68440;BMP180;55421;51.600;5.718;2022-07-21T10:23:18;228078.59;;;20.60
68440;BMP180;55421;51.600;5.718;2022-07-21T10:25:49;227192.00;;;20.60
68440;BMP180;55421;51.600;5.718;2022-07-21T10:28:20;226842.41;;;20.64
68440;BMP180;55421;51.600;5.718;2022-07-21T10:30:52;227443.20;;;20.70
68440;BMP180;55421;51.600;5.718;2022-07-21T10:41:44;226074.80;;;20.60
68440;BMP180;55421;51.600;5.718;2022-07-21T10:47:05;226391.41;;;20.60
68440;BMP180;55421;51.600;5.718;2022-07-21T10:50:02;226254.59;;;20.60
68440;BMP180;55421;51.600;5.718;2022-07-21T10:57:44;226058.20;;;20.70
68440;BMP180;55421;51.600;5.718;2022-07-21T11:00:33;226079.80;;;20.70
68440;BMP180;55421;51.600;5.718;2022-07-21T11:03:03;226102.59;;;20.70
68440;BMP180;55421;51.600;5.718;2022-07-21T11:05:33;226102.59;;;20.72
68440;BMP180;55421;51.600;5.718;2022-07-21T11:08:18;226047.41;;;20.62
68440;BMP180;55421;51.600;5.718;2022-07-21T11:10:52;226013.00;;;20.60
68440;BMP180;55421;51.600;5.718;2022-07-21T11:13:21;225977.20;;;20.50
68440;BMP180;55421;51.600;5.718;2022-07-21T11:15:57;225961.00;;;20.50
68440;BMP180;55421;51.600;5.718;2022-07-21T11:18:30;225939.80;;;20.42
68440;BMP180;55421;51.600;5.718;2022-07-21T11:21:16;225941.41;;;20.44
68440;BMP180;55421;51.600;5.718;2022-07-21T11:23:49;225948.20;;;20.50
68440;BMP180;55421;51.600;5.718;2022-07-21T11:26:24;225925.41;;;20.40
68440;BMP180;55421;51.600;5.718;2022-07-21T11:29:05;225906.20;;;20.40
68440;BMP180;55421;51.600;5.718;2022-07-21T11:31:37;225903.00;;;20.40
68440;BMP180;55421;51.600;5.718;2022-07-21T11:34:10;225925.41;;;20.40
68440;BMP180;55421;51.600;5.718;2022-07-21T11:36:39;225912.59;;;20.40
68440;BMP180;55421;51.600;5.718;2022-07-21T11:39:12;225893.41;;;20.40
68440;BMP180;55421;51.600;5.718;2022-07-21T11:41:41;225882.20;;;20.38
68440;BMP180;55421;51.600;5.718;2022-07-21T11:44:10;225882.20;;;20.30
68440;BMP180;55421;51.600;5.718;2022-07-21T11:46:55;225882.20;;;20.32
68440;BMP180;55421;51.600;5.718;2022-07-21T11:49:23;225906.20;;;20.40
68440;BMP180;55421;51.600;5.718;2022-07-21T11:51:57;225930.20;;;20.40
68440;BMP180;55421;51.600;5.718;2022-07-21T11:54:42;225936.59;;;20.44
68440;BMP180;55421;51.600;5.718;2022-07-21T11:57:43;225904.59;;;20.40
68440;BMP180;55421;51.600;5.718;2022-07-21T12:00:13;225883.80;;;20.30
68440;BMP180;55421;51.600;5.718;2022-07-21T12:02:40;225874.59;;;20.30
68440;BMP180;55421;51.600;5.718;2022-07-21T12:05:08;225864.20;;;20.30
68440;BMP180;55421;51.600;5.718;2022-07-21T12:07:39;225860.20;;;20.30
68440;BMP180;55421;51.600;5.718;2022-07-21T12:10:10;225845.41;;;20.30
68440;BMP180;55421;51.600;5.718;2022-07-21T12:12:42;225843.80;;;20.30
68440;BMP180;55421;51.600;5.718;2022-07-21T12:15:24;225839.41;;;20.30
68440;BMP180;55421;51.600;5.718;2022-07-21T12:17:58;225843.80;;;20.30
68440;BMP180;55421;51.600;5.718;2022-07-21T12:20:31;225850.20;;;20.30
68440;BMP180;55421;51.600;5.718;2022-07-21T12:23:01;225827.20;;;20.24
68440;BMP180;55421;51.600;5.718;2022-07-21T12:25:37;225859.00;;;20.30
68440;BMP180;55421;51.600;5.718;2022-07-21T12:28:06;225890.20;;;20.34
68440;BMP180;55421;51.600;5.718;2022-07-21T12:30:40;225923.80;;;20.40
68440;BMP180;55421;51.600;5.718;2022-07-21T12:33:11;225977.20;;;20.50
68440;BMP180;55421;51.600;5.718;2022-07-21T12:35:42;226005.80;;;20.60
68440;BMP180;55421;51.600;5.718;2022-07-21T12:38:14;226031.41;;;20.60
68440;BMP180;55421;51.600;5.718;2022-07-21T12:40:56;226014.59;;;20.60
68440;BMP180;55421;51.600;5.718;2022-07-21T12:43:24;225994.59;;;20.52
68440;BMP180;55421;51.600;5.718;2022-07-21T12:46:28;225984.20;;;20.50
68440;BMP180;55421;51.600;5.718;2022-07-21T12:49:07;225994.80;;;20.52
68440;BMP180;55421;51.600;5.718;2022-07-21T12:51:40;226035.00;;;20.60
68440;BMP180;55421;51.600;5.718;2022-07-21T12:54:08;226058.20;;;20.70
68440;BMP180;55421;51.600;5.718;2022-07-21T12:56:36;226073.80;;;20.70
68440;BMP180;55421;51.600;5.718;2022-07-21T12:59:03;226063.00;;;20.70
68440;BMP180;55421;51.600;5.718;2022-07-21T13:01:32;226014.59;;;20.60
68440;BMP180;55421;51.600;5.718;2022-07-21T13:04:01;225985.80;;;20.50
68440;BMP180;55421;51.600;5.718;2022-07-21T13:06:28;225955.59;;;20.50
68440;BMP180;55421;51.600;5.718;2022-07-21T13:08:54;225935.00;;;20.40
68440;BMP180;55421;51.600;5.718;2022-07-21T13:11:20;225914.20;;;20.40
68440;BMP180;55421;51.600;5.718;2022-07-21T13:13:49;225883.80;;;20.32
68440;BMP180;55421;51.600;5.718;2022-07-21T13:16:18;225879.00;;;20.30
68440;BMP180;55421;51.600;5.718;2022-07-21T13:18:45;225885.41;;;20.34
68440;BMP180;55421;51.600;5.718;2022-07-21T13:21:11;225911.00;;;20.40
68440;BMP180;55421;51.600;5.718;2022-07-21T13:23:38;225951.41;;;20.50
68440;BMP180;55421;51.600;5.718;2022-07-21T13:26:04;225987.41;;;20.50
68440;BMP180;55421;51.600;5.718;2022-07-21T13:28:33;225981.00;;;20.50
68440;BMP180;55421;51.600;5.718;2022-07-21T13:31:01;225966.80;;;20.50
68440;BMP180;55421;51.600;5.718;2022-07-21T13:33:27;225955.59;;;20.50
68440;BMP180;55421;51.600;5.718;2022-07-21T13:35:54;225944.20;;;20.50
68440;BMP180;55421;51.600;5.718;2022-07-21T13:38:20;225966.80;;;20.50
68440;BMP180;55421;51.600;5.718;2022-07-21T13:40:47;225997.80;;;20.50
68440;BMP180;55421;51.600;5.718;2022-07-21T13:43:13;226019.80;;;20.60
68440;BMP180;55421;51.600;5.718;2022-07-21T13:45:41;226004.20;;;20.60
68440;BMP180;55421;51.600;5.718;2022-07-21T13:48:07;225984.20;;;20.50
68440;BMP180;55421;51.600;5.718;2022-07-21T13:50:34;225960.59;;;20.50
68440;BMP180;55421;51.600;5.718;2022-07-21T13:53:00;225951.41;;;20.50
68440;BMP180;55421;51.600;5.718;2022-07-21T13:55:27;225936.59;;;20.42
68440;BMP180;55421;51.600;5.718;2022-07-21T13:57:53;225907.80;;;20.40
68440;BMP180;55421;51.600;5.718;2022-07-21T14:00:20;225882.20;;;20.32
68440;BMP180;55421;51.600;5.718;2022-07-21T14:02:46;225823.20;;;20.22
68440;BMP180;55421;51.600;5.718;2022-07-21T14:05:14;225800.00;;;20.20
68440;BMP180;55421;51.600;5.718;2022-07-21T14:07:40;225784.80;;;20.20
68440;BMP180;55421;51.600;5.718;2022-07-21T14:10:08;225781.20;;;20.20
68440;BMP180;55421;51.600;5.718;2022-07-21T14:12:34;225778.00;;;20.12
68440;BMP180;55421;51.600;5.718;2022-07-21T14:15:02;225772.00;;;20.14
68440;BMP180;55421;51.600;5.718;2022-07-21T14:17:28;225772.00;;;20.10
68440;BMP180;55421;51.600;5.718;2022-07-21T14:19:55;225775.20;;;20.16
68440;BMP180;55421;51.600;5.718;2022-07-21T14:22:21;225789.20;;;20.20
68440;BMP180;55421;51.600;5.718;2022-07-21T14:24:48;225779.59;;;20.20
68440;BMP180;55421;51.600;5.718;2022-07-21T14:27:33;225790.41;;;20.20
68440;BMP180;55421;51.600;5.718;2022-07-21T14:30:00;225814.80;;;20.20
68440;BMP180;55421;51.600;5.718;2022-07-21T14:32:27;225825.20;;;20.22
68440;BMP180;55421;51.600;5.718;2022-07-21T14:34:55;225846.59;;;20.30
68440;BMP180;55421;51.600;5.718;2022-07-21T14:37:21;225870.20;;;20.30
68440;BMP180;55421;51.600;5.718;2022-07-21T14:39:49;225873.00;;;20.30